EDT,Max TemperatureF,Mean TemperatureF,Min TemperatureF,Max Dew PointF,MeanDew PointF,Min DewpointF,Max Humidity, Mean Humidity, Min Humidity, Max Sea Level PressureIn, Mean Sea Level PressureIn, Min Sea Level PressureIn, Max VisibilityMiles, Mean VisibilityMiles, Min VisibilityMiles, Max Wind SpeedMPH, Mean Wind SpeedMPH, Max Gust SpeedMPH,PrecipitationIn, CloudCover, Events, WindDirDegrees
2012-9-1,80,68,57,64,58,49,100,74,35,30.15,30.11,30.07,10.0,10.0,10.0,6,1,,0.00,1,,44
2012-9-2,82,70,59,66,60,52,100,76,35,30.08,30.04,29.99,10.0,9.8,1.0,10,2,16,0.00,1,,81
2012-9-3,86,70,55,71,64,56,100,79,51,30.02,29.96,29.90,10.0,9.8,7.0,7,1,,0.00,1,,104
2012-9-4,80,72,64,74,69,64,100,95,67,29.94,29.90,29.86,10.0,5.1,0.2,7,1,17,1.25,4,Fog-Rain,347
2012-9-5,80,70,59,73,68,59,100,92,73,29.90,29.85,29.79,10.0,6.3,0.2,13,3,17,0.00,5,Fog,190
2012-9-6,81,70,58,70,62,57,100,81,44,29.93,29.89,29.81,10.0,9.3,4.0,6,2,,0.00,1,,281
2012-9-7,76,66,55,67,60,55,100,87,50,29.92,29.84,29.68,10.0,8.1,0.2,14,1,23,0.36,2,Fog-Rain,274
2012-9-8,70,62,55,58,54,50,100,80,51,29.85,29.73,29.64,10.0,9.8,7.0,17,7,24,0.32,7,Rain,303
2012-9-9,68,56,45,55,49,40,100,78,36,30.11,29.97,29.85,10.0,9.4,0.8,13,2,21,0.00,2,,327
2012-9-10,71,56,42,56,47,42,100,77,37,30.23,30.18,30.11,10.0,9.7,5.0,9,1,16,0.00,1,,284
2012-9-11,79,62,44,57,51,44,100,71,38,30.22,30.17,30.13,10.0,10.0,7.0,16,4,24,0.00,0,,198
2012-9-12,83,66,49,59,54,50,100,66,33,30.22,30.19,30.15,10.0,10.0,10.0,14,5,18,0.00,0,,199
2012-9-13,81,68,54,62,58,53,100,77,37,30.27,30.21,30.17,10.0,9.7,7.0,14,3,20,0.00,4,,239
2012-9-14,70,60,49,58,52,42,100,82,37,30.28,30.25,30.23,10.0,9.3,5.0,13,5,22,0.53,5,Rain,323
2012-9-15,68,54,41,55,48,42,100,81,44,30.34,30.26,30.16,10.0,9.4,2.0,8,1,,0.00,1,,299
2012-9-16,77,61,45,58,50,45,100,75,33,30.16,30.08,30.02,10.0,9.3,3.0,9,2,16,0.00,3,,235
2012-9-17,76,62,48,57,52,47,100,66,39,30.03,29.89,29.70,10.0,10.0,10.0,15,6,21,0.00,2,,187
2012-9-18,65,55,44,64,50,39,100,83,58,29.94,29.73,29.62,10.0,9.8,5.0,16,8,24,0.05,6,Rain,300
2012-9-19,64,49,34,44,38,32,100,64,33,30.10,30.02,29.95,10.0,10.0,7.0,15,5,20,0.00,1,,205
2012-9-20,70,59,47,51,45,37,99,59,42,29.95,29.88,29.83,10.0,10.0,7.0,17,10,26,0.05,4,Rain,215
2012-9-21,68,55,42,54,44,37,100,76,32,29.92,29.88,29.79,10.0,10.0,10.0,15,3,22,0.09,3,Rain,238
2012-9-22,59,52,44,51,45,38,100,79,46,30.05,29.84,29.72,10.0,9.8,7.0,14,5,23,0.01,4,Rain,271
2012-9-23,54,46,38,44,40,35,100,79,51,30.19,30.13,30.05,10.0,9.9,5.0,15,5,24,0.02,5,Rain,270
2012-9-24,63,47,31,42,35,32,100,65,33,30.19,30.06,29.88,10.0,9.9,5.0,20,6,29,0.00,0,,220
2012-9-25,71,60,48,52,44,34,100,59,42,29.93,29.89,29.85,10.0,10.0,10.0,15,9,23,0.00,2,,209
2012-9-26,69,57,44,58,51,44,100,82,40,30.17,30.00,29.89,10.0,8.1,1.2,8,2,16,0.00,5,,30
2012-9-27,64,50,36,50,43,36,100,79,45,30.26,30.21,30.17,10.0,9.8,1.5,9,1,16,0.00,5,,64
2012-9-28,68,56,43,53,46,42,100,80,40,30.18,30.14,30.08,10.0,9.9,7.0,9,1,,0.00,4,,309
2012-9-29,69,54,39,52,43,38,100,77,33,30.10,30.03,29.96,10.0,8.3,0.5,9,1,18,0.00,2,Fog,341
2012-9-30,64,52,39,52,45,39,100,82,45,29.98,29.96,29.94,10.0,8.8,1.2,10,2,16,0.00,4,,21